Time;durP1;ratioP1;P1;durP2;ratioP2;P2;SDS_P1;SDS_P2;PMS_P1;PMS_P2;Temp;Humidity;BMP_temperature;BMP_pressure;BME280_temperature;BME280_humidity;BME280_pressure;Samples;Min_cycle;Max_cycle;Signal;HPM_P1;HPM_P2
2022/11/15 00:00:18;;;;;;;29.17;24.58;;;7.30;99.90;;;;;;4940856;28;90781;-33
2022/11/15 00:02:43;;;;;;;31.27;25.77;;;7.30;99.90;;;;;;4940716;28;90752;-31
2022/11/15 00:05:09;;;;;;;31.67;26.20;;;7.30;99.90;;;;;;4939979;28;90060;-32
2022/11/15 00:07:34;;;;;;;36.22;27.10;;;7.20;99.90;;;;;;4940375;28;89857;-30
2022/11/15 00:10:00;;;;;;;31.55;24.70;;;7.20;99.90;;;;;;4941017;28;90182;-31
2022/11/15 00:12:27;;;;;;;31.30;27.95;;;7.10;99.90;;;;;;4940429;28;87860;-31
2022/11/15 00:14:53;;;;;;;30.63;27.15;;;7.10;99.90;;;;;;4940187;28;89816;-33
2022/11/15 00:17:19;;;;;;;30.45;26.52;;;7.10;99.90;;;;;;4940830;28;89643;-30
2022/11/15 00:19:44;;;;;;;29.13;24.75;;;7.10;99.90;;;;;;4940467;28;89629;-31
2022/11/15 00:22:10;;;;;;;29.52;24.95;;;7.20;99.90;;;;;;4941068;28;89918;-32
2022/11/15 00:24:36;;;;;;;29.40;23.42;;;7.30;99.90;;;;;;4940196;28;89237;-31
2022/11/15 00:27:02;;;;;;;26.83;22.10;;;7.30;99.90;;;;;;4939960;28;89860;-32
2022/11/15 00:29:27;;;;;;;34.33;25.98;;;7.40;99.90;;;;;;4940219;28;89709;-31
2022/11/15 00:31:53;;;;;;;28.63;24.13;;;7.50;99.90;;;;;;4928960;28;89603;-33
2022/11/15 00:34:19;;;;;;;30.73;25.63;;;7.60;99.90;;;;;;4939135;28;90367;-31
2022/11/15 00:36:44;;;;;;;33.35;26.00;;;7.60;99.90;;;;;;4939388;28;89766;-30
2022/11/15 00:39:10;;;;;;;32.42;25.20;;;7.70;99.90;;;;;;4940549;28;90123;-31
2022/11/15 00:41:35;;;;;;;29.63;25.38;;;7.70;99.90;;;;;;4940331;28;89168;-32
2022/11/15 00:44:01;;;;;;;29.02;25.67;;;7.70;99.90;;;;;;4940229;28;90328;-34
2022/11/15 00:46:26;;;;;;;30.83;26.83;;;7.70;99.90;;;;;;4939237;28;90490;-32
2022/11/15 00:48:52;;;;;;;31.83;27.30;;;7.70;99.90;;;;;;4939510;28;89567;-33
2022/11/15 00:51:17;;;;;;;27.70;24.73;;;7.70;99.90;;;;;;4939960;28;89399;-31
2022/11/15 00:53:43;;;;;;;30.48;25.45;;;7.70;99.90;;;;;;4939412;28;90990;-31
2022/11/15 00:56:09;;;;;;;32.92;25.23;;;7.70;99.90;;;;;;4938837;28;89745;-32
2022/11/15 00:58:34;;;;;;;31.30;26.65;;;7.80;99.90;;;;;;4939365;28;89204;-30
2022/11/15 01:01:12;;;;;;;27.77;23.50;;;7.90;99.90;;;;;;4940536;28;89812;-32
2022/11/15 01:03:39;;;;;;;30.63;25.73;;;7.90;99.90;;;;;;4927674;28;90142;-33
2022/11/15 01:06:05;;;;;;;31.80;24.50;;;7.90;99.90;;;;;;4940296;28;89580;-31
2022/11/15 01:08:31;;;;;;;27.63;23.73;;;7.90;99.90;;;;;;4938954;28;89148;-30
2022/11/15 01:11:09;;;;;;;32.63;25.42;;;8.00;99.90;;;;;;4939587;28;89045;-33
2022/11/15 01:13:35;;;;;;;25.58;21.00;;;7.90;99.90;;;;;;4939731;28;91640;-32
2022/11/15 01:16:13;;;;;;;35.38;25.10;;;8.00;99.90;;;;;;4939505;28;89827;-31
2022/11/15 01:18:39;;;;;;;37.85;26.65;;;8.00;99.90;;;;;;4938723;28;90197;-32
2022/11/15 01:21:13;;;;;;;29.70;24.52;;;8.10;99.90;;;;;;4939896;28;89487;-31
2022/11/15 01:23:38;;;;;;;34.42;25.17;;;8.00;99.90;;;;;;4938831;28;89435;-31
2022/11/15 01:26:06;;;;;;;33.55;25.70;;;8.10;99.90;;;;;;4940114;28;89717;-31
2022/11/15 01:28:36;;;;;;;38.75;26.23;;;8.10;99.90;;;;;;4939590;28;89263;-31
2022/11/15 01:31:06;;;;;;;32.90;26.90;;;8.00;99.90;;;;;;4934771;28;90691;-31
2022/11/15 01:33:34;;;;;;;33.10;26.27;;;8.10;99.90;;;;;;4931893;28;89224;-31
2022/11/15 01:36:04;;;;;;;29.00;24.40;;;8.00;99.90;;;;;;4938994;28;90384;-31
2022/11/15 01:38:30;;;;;;;31.70;24.77;;;8.00;99.90;;;;;;4938916;28;92004;-32
2022/11/15 01:40:56;;;;;;;31.88;24.60;;;8.00;99.90;;;;;;4939124;28;89244;-31
2022/11/15 01:43:30;;;;;;;32.92;25.00;;;8.00;99.90;;;;;;4939205;28;89386;-32
2022/11/15 01:46:19;;;;;;;28.25;23.45;;;8.00;99.90;;;;;;4938982;28;90267;-31
2022/11/15 01:48:45;;;;;;;32.13;24.27;;;8.00;99.90;;;;;;4938784;28;88961;-31
2022/11/15 01:51:13;;;;;;;29.88;23.95;;;8.00;99.90;;;;;;4939047;28;90371;-31
2022/11/15 01:53:41;;;;;;;33.58;25.45;;;8.00;99.90;;;;;;4937552;28;90103;-33
2022/11/15 01:56:16;;;;;;;32.45;24.08;;;8.00;99.90;;;;;;4939463;28;89594;-32
2022/11/15 01:58:43;;;;;;;33.67;25.92;;;8.00;99.90;;;;;;4939074;28;90468;-30
2022/11/15 02:01:09;;;;;;;34.58;24.63;;;8.10;99.90;;;;;;4939257;28;89472;-31
2022/11/15 02:03:46;;;;;;;33.65;24.80;;;8.10;99.90;;;;;;4938456;28;89857;-31
2022/11/15 02:06:12;;;;;;;32.17;24.67;;;8.00;99.90;;;;;;4939124;28;89651;-30
2022/11/15 02:08:37;;;;;;;29.70;23.88;;;8.00;99.90;;;;;;4939359;28;89631;-31
2022/11/15 02:11:08;;;;;;;30.88;23.45;;;8.10;99.90;;;;;;4941797;28;89353;-33
2022/11/15 02:13:35;;;;;;;29.35;23.42;;;8.10;99.90;;;;;;4942677;28;89313;-32
2022/11/15 02:16:38;;;;;;;32.00;23.52;;;8.10;99.90;;;;;;4941901;28;90027;-30
2022/11/15 02:19:28;;;;;;;33.25;24.13;;;8.10;99.90;;;;;;4943077;28;89904;-31
2022/11/15 02:22:32;;;;;;;29.10;25.10;;;8.10;99.90;;;;;;4943225;28;90058;-31
2022/11/15 02:25:27;;;;;;;36.78;26.98;;;8.10;99.90;;;;;;4942356;28;90322;-32
2022/11/15 02:28:20;;;;;;;32.55;24.38;;;8.10;99.90;;;;;;4940741;28;90905;-33
2022/11/15 02:31:03;;;;;;;39.85;24.00;;;8.20;99.90;;;;;;4942205;28;90789;-33
2022/11/15 02:34:10;;;;;;;34.97;26.15;;;8.10;99.90;;;;;;4941824;28;88229;-32
2022/11/15 02:36:47;;;;;;;34.55;25.00;;;8.20;99.90;;;;;;4941697;28;90478;-30
2022/11/15 02:39:23;;;;;;;34.45;25.40;;;8.10;99.90;;;;;;4939972;28;89631;-33
2022/11/15 02:45:07;;;;;;;33.88;26.45;;;8.10;99.90;;;;;;4942184;28;88466;-31
2022/11/15 02:47:39;;;;;;;37.28;26.67;;;8.10;99.90;;;;;;4942191;28;90784;-32
2022/11/15 02:50:11;;;;;;;37.05;27.55;;;8.20;99.90;;;;;;4942123;28;90199;-33
2022/11/15 02:52:37;;;;;;;41.53;27.95;;;8.20;99.90;;;;;;4941652;28;89283;-31
2022/11/15 02:55:03;;;;;;;35.95;25.08;;;8.20;99.90;;;;;;4942021;28;90534;-31
2022/11/15 02:57:51;;;;;;;40.05;28.42;;;8.20;99.90;;;;;;4941203;28;89854;-33
2022/11/15 03:00:19;;;;;;;36.80;26.35;;;8.20;99.90;;;;;;4941344;28;89561;-32
2022/11/15 03:03:00;;;;;;;49.17;27.70;;;8.20;99.90;;;;;;4941174;28;89934;-32
2022/11/15 03:05:40;;;;;;;38.53;27.10;;;8.20;99.90;;;;;;4941096;28;89653;-33
2022/11/15 03:08:25;;;;;;;43.63;29.48;;;8.30;99.90;;;;;;4941709;28;90995;-31
2022/11/15 03:11:11;;;;;;;35.45;26.00;;;8.30;99.90;;;;;;4941274;28;89701;-33
2022/11/15 03:14:02;;;;;;;43.88;26.35;;;8.30;99.90;;;;;;4941678;28;89137;-33
2022/11/15 03:16:37;;;;;;;41.30;28.95;;;8.30;99.90;;;;;;4918425;28;88409;-32
2022/11/15 03:19:19;;;;;;;35.78;27.85;;;8.20;99.90;;;;;;4942077;28;90504;-33
2022/11/15 03:21:47;;;;;;;43.85;29.98;;;8.30;99.90;;;;;;4940583;28;90987;-32
2022/11/15 03:24:15;;;;;;;37.90;28.37;;;8.30;99.90;;;;;;4941582;28;90344;-32
2022/11/15 03:26:43;;;;;;;;;;;8.30;99.90;;;;;;4941640;28;88664;-32
2022/11/15 03:29:22;;;;;;;45.50;28.08;;;8.30;99.90;;;;;;4943034;28;91300;-32
2022/11/15 03:31:54;;;;;;;33.70;27.48;;;8.30;99.90;;;;;;4941133;28;89849;-31
2022/11/15 03:34:28;;;;;;;46.15;29.73;;;8.30;99.90;;;;;;4941869;28;89607;-32
2022/11/15 03:36:54;;;;;;;36.05;27.98;;;8.30;99.90;;;;;;4941106;28;89646;-32
2022/11/15 03:39:21;;;;;;;39.88;27.98;;;8.30;99.90;;;;;;4941434;28;90358;-32
2022/11/15 03:42:22;;;;;;;42.60;29.67;;;8.30;99.90;;;;;;4940799;28;91352;-32
2022/11/15 03:45:00;;;;;;;40.47;28.58;;;8.30;99.90;;;;;;4940856;28;89179;-29
2022/11/15 03:47:36;;;;;;;45.67;29.85;;;8.40;99.90;;;;;;4940810;28;88693;-30
2022/11/15 03:50:08;;;;;;;42.75;30.25;;;8.40;99.90;;;;;;4940477;28;90803;-33
2022/11/15 03:52:35;;;;;;;42.63;30.88;;;8.40;99.90;;;;;;4940969;28;89640;-31
2022/11/15 03:55:03;;;;;;;36.13;25.35;;;8.40;99.90;;;;;;4940470;28;90556;-32
2022/11/15 03:57:29;;;;;;;38.28;29.08;;;8.40;99.90;;;;;;4940665;28;87694;-32
2022/11/15 03:59:54;;;;;;;44.60;30.70;;;8.40;99.90;;;;;;4941641;28;90078;-31
2022/11/15 04:02:20;;;;;;;38.50;29.92;;;8.30;99.90;;;;;;4940824;28;89688;-32
2022/11/15 04:04:45;;;;;;;46.20;29.85;;;8.30;99.90;;;;;;4940229;28;89441;-32
2022/11/15 04:07:11;;;;;;;38.33;27.92;;;8.30;99.90;;;;;;4941308;28;88262;-32
2022/11/15 04:12:30;;;;;;;49.78;33.97;;;8.40;99.90;;;;;;4940194;28;90801;-32
2022/11/15 04:15:09;;;;;;;46.28;30.42;;;8.40;99.90;;;;;;4940137;28;90982;-31
2022/11/15 04:17:39;;;;;;;;;;;8.40;99.90;;;;;;4940634;28;88574;-30
2022/11/15 04:25:42;;;;;;;50.97;33.30;;;8.40;99.90;;;;;;4939504;28;88627;-31
2022/11/15 04:28:08;;;;;;;46.35;32.70;;;8.50;99.90;;;;;;4940310;28;89169;-32
2022/11/15 04:30:33;;;;;;;45.47;33.08;;;8.50;99.90;;;;;;4940633;28;90523;-31
2022/11/15 04:32:59;;;;;;;45.97;31.63;;;8.50;99.90;;;;;;4938960;28;89590;-31
2022/11/15 04:35:25;;;;;;;43.45;30.83;;;8.60;99.90;;;;;;4940282;28;89892;-32
2022/11/15 04:37:50;;;;;;;56.78;38.17;;;8.60;99.90;;;;;;4939330;28;89356;-32
2022/11/15 04:40:16;;;;;;;56.95;36.50;;;8.60;99.90;;;;;;4940580;28;90017;-32
2022/11/15 04:42:44;;;;;;;48.53;36.83;;;8.60;99.90;;;;;;4939966;28;90678;-31
2022/11/15 04:45:10;;;;;;;;;;;8.60;99.90;;;;;;4940613;28;89577;-30
2022/11/15 04:47:36;;;;;;;67.07;40.72;;;8.60;99.90;;;;;;4941895;28;88605;-34
2022/11/15 04:50:02;;;;;;;65.53;43.05;;;8.60;99.90;;;;;;4939987;28;90857;-32
2022/11/15 04:52:28;;;;;;;52.75;38.92;;;8.60;99.90;;;;;;4939219;28;90310;-31
2022/11/15 04:54:53;;;;;;;60.63;42.42;;;8.60;99.90;;;;;;4940446;28;89708;-33
2022/11/15 04:57:19;;;;;;;56.67;39.33;;;8.70;99.90;;;;;;4940220;28;89652;-32
2022/11/15 04:59:44;;;;;;;60.42;41.15;;;8.70;99.90;;;;;;4939477;28;90083;-32
2022/11/15 05:02:10;;;;;;;62.50;40.00;;;8.70;99.90;;;;;;4938481;28;91132;-32
2022/11/15 05:04:36;;;;;;;66.40;41.58;;;8.80;99.90;;;;;;4939542;28;90429;-32
2022/11/15 05:07:01;;;;;;;60.80;40.80;;;8.80;99.90;;;;;;4939795;28;89270;-32
2022/11/15 05:09:27;;;;;;;55.22;39.20;;;8.80;99.90;;;;;;4939281;28;90300;-30
2022/11/15 05:11:53;;;;;;;69.70;43.65;;;8.90;99.90;;;;;;4939915;28;89684;-33
2022/11/15 05:14:18;;;;;;;55.78;40.03;;;9.00;99.90;;;;;;4938805;28;90164;-31
2022/11/15 05:16:44;;;;;;;64.97;43.05;;;9.00;99.90;;;;;;4938245;28;88354;-31
2022/11/15 05:19:09;;;;;;;54.22;40.95;;;8.90;99.90;;;;;;4939823;28;90448;-31
2022/11/15 05:21:35;;;;;;;52.65;38.97;;;9.00;99.90;;;;;;4939564;28;89116;-31
2022/11/15 05:24:02;;;;;;;53.45;38.50;;;9.00;99.90;;;;;;4939256;28;89575;-33
2022/11/15 05:26:28;;;;;;;59.47;40.00;;;9.00;99.90;;;;;;4938402;28;89635;-33
2022/11/15 05:28:55;;;;;;;59.17;39.13;;;9.00;99.90;;;;;;4939381;28;90696;-31
2022/11/15 05:31:21;;;;;;;52.33;36.65;;;9.10;99.90;;;;;;4939975;28;89855;-32
2022/11/15 05:33:48;;;;;;;55.13;38.15;;;9.10;99.90;;;;;;4939207;28;91658;-31
2022/11/15 05:36:13;;;;;;;45.17;33.60;;;9.10;99.90;;;;;;4939339;28;89090;-33
2022/11/15 05:38:39;;;;;;;51.47;37.03;;;9.10;99.90;;;;;;4939191;28;90152;-32
2022/11/15 05:41:06;;;;;;;55.83;37.20;;;9.20;99.90;;;;;;4938649;28;89847;-33
2022/11/15 05:43:34;;;;;;;42.05;36.40;;;9.20;99.90;;;;;;4939244;28;89962;-30
2022/11/15 05:46:00;;;;;;;53.53;39.13;;;9.20;99.90;;;;;;4939946;28;88379;-31
2022/11/15 05:48:26;;;;;;;42.60;34.67;;;9.20;99.90;;;;;;4938829;28;90295;-31
2022/11/15 05:50:52;;;;;;;40.78;33.70;;;9.20;99.90;;;;;;4938778;28;90811;-31
2022/11/15 05:53:21;;;;;;;54.10;36.67;;;9.30;99.90;;;;;;4939186;28;90491;-32
2022/11/15 05:55:47;;;;;;;37.47;30.15;;;9.30;99.90;;;;;;4939176;28;89437;-33
2022/11/15 05:58:13;;;;;;;41.58;32.90;;;9.40;99.90;;;;;;4939260;28;90048;-31
2022/11/15 06:00:39;;;;;;;46.28;35.10;;;9.40;99.90;;;;;;4939390;28;89603;-32
2022/11/15 06:03:04;;;;;;;43.75;31.33;;;9.50;99.90;;;;;;4938508;28;90157;-32
2022/11/15 06:05:30;;;;;;;46.65;33.28;;;9.60;99.90;;;;;;4939351;28;88324;-32
2022/11/15 06:07:59;;;;;;;42.97;31.45;;;9.60;99.90;;;;;;4938114;28;90092;-31
2022/11/15 06:10:25;;;;;;;34.38;28.67;;;9.60;99.90;;;;;;4937952;28;90886;-32
2022/11/15 06:13:16;;;;;;;43.35;33.95;;;9.70;99.90;;;;;;4932835;28;89414;-31
2022/11/15 06:15:42;;;;;;;42.15;32.05;;;9.70;99.90;;;;;;4921283;28;89278;-31
2022/11/15 06:18:07;;;;;;;40.22;31.90;;;9.70;99.90;;;;;;4930213;28;90346;-30
2022/11/15 06:20:33;;;;;;;42.75;31.88;;;9.70;99.90;;;;;;4938494;28;89975;-32
2022/11/15 06:23:03;;;;;;;38.47;30.60;;;9.80;99.90;;;;;;4938654;28;89574;-33
2022/11/15 06:25:30;;;;;;;39.03;29.67;;;9.90;99.90;;;;;;4938923;28;89488;-31
2022/11/15 06:27:57;;;;;;;40.95;29.75;;;9.90;99.90;;;;;;4938567;28;90553;-31
2022/11/15 06:30:24;;;;;;;36.97;29.10;;;9.90;99.90;;;;;;4938407;28;89706;-31
2022/11/15 06:32:50;;;;;;;43.40;28.90;;;10.00;99.90;;;;;;4938673;28;89589;-31
2022/11/15 06:35:16;;;;;;;42.13;30.50;;;10.10;99.90;;;;;;4939253;28;88197;-33
2022/11/15 06:37:42;;;;;;;41.38;31.27;;;10.10;99.90;;;;;;4938326;28;90097;-31
2022/11/15 06:40:09;;;;;;;41.25;32.72;;;10.10;99.90;;;;;;4937690;28;91092;-33
2022/11/15 06:42:35;;;;;;;43.10;32.33;;;10.20;99.90;;;;;;4938669;28;90599;-32
2022/11/15 06:45:01;;;;;;;34.67;29.77;;;10.20;99.90;;;;;;4938568;28;88109;-31
2022/11/15 06:47:26;;;;;;;35.90;29.50;;;10.20;99.90;;;;;;4938509;28;89876;-33
2022/11/15 06:49:52;;;;;;;35.70;27.77;;;10.30;99.90;;;;;;4938252;28;89567;-32
2022/11/15 06:52:19;;;;;;;40.95;28.75;;;10.30;99.90;;;;;;4937923;28;90018;-33
2022/11/15 06:54:45;;;;;;;38.88;29.30;;;10.40;99.90;;;;;;4939382;28;89090;-32
2022/11/15 06:57:10;;;;;;;38.17;27.75;;;10.40;99.90;;;;;;4938355;28;90234;-32
2022/11/15 06:59:36;;;;;;;35.05;26.85;;;10.40;99.90;;;;;;4939179;28;89588;-33
2022/11/15 07:02:03;;;;;;;31.00;26.20;;;10.50;99.90;;;;;;4939712;28;89273;-31
2022/11/15 07:04:28;;;;;;;35.80;28.35;;;10.40;99.90;;;;;;4938374;28;90796;-32
2022/11/15 07:06:54;;;;;;;28.15;25.17;;;10.50;99.90;;;;;;4939239;28;90371;-34
2022/11/15 07:09:20;;;;;;;35.88;28.08;;;10.50;99.90;;;;;;4938233;28;89640;-31
2022/11/15 07:11:45;;;;;;;32.45;25.48;;;10.50;99.90;;;;;;4938733;28;90035;-33
2022/11/15 07:14:11;;;;;;;30.75;25.13;;;10.50;99.90;;;;;;4939414;28;88445;-32
2022/11/15 07:16:37;;;;;;;34.85;26.35;;;10.50;99.90;;;;;;4938622;28;90084;-34
2022/11/15 07:19:03;;;;;;;26.88;21.30;;;10.50;99.90;;;;;;4939320;28;89610;-33
2022/11/15 07:21:28;;;;;;;36.53;27.55;;;10.50;99.90;;;;;;4938816;28;89601;-32
2022/11/15 07:23:54;;;;;;;30.15;25.40;;;10.50;99.90;;;;;;4938962;28;88308;-32
2022/11/15 07:26:20;;;;;;;29.20;23.23;;;10.50;99.90;;;;;;4937095;28;91340;-30
2022/11/15 07:28:45;;;;;;;34.17;26.30;;;10.60;99.90;;;;;;4935253;28;90539;-31
2022/11/15 07:31:11;;;;;;;34.38;25.55;;;10.50;99.90;;;;;;4938875;28;90941;-31
2022/11/15 07:33:37;;;;;;;33.53;26.63;;;10.50;99.90;;;;;;4937974;28;88510;-32
2022/11/15 07:36:04;;;;;;;30.45;25.58;;;10.60;99.90;;;;;;4938413;28;90620;-32
2022/11/15 07:38:30;;;;;;;34.43;26.40;;;10.60;99.90;;;;;;4937933;28;89760;-33
2022/11/15 07:41:01;;;;;;;31.88;25.55;;;10.60;99.90;;;;;;4938500;28;89440;-31
2022/11/15 07:43:28;;;;;;;25.45;22.63;;;10.60;99.90;;;;;;4938356;28;89247;-32
2022/11/15 07:45:54;;;;;;;26.05;21.75;;;10.60;99.90;;;;;;4938692;28;89822;-33
2022/11/15 07:48:20;;;;;;;31.10;24.92;;;10.60;99.90;;;;;;4938390;28;89907;-32
2022/11/15 07:50:45;;;;;;;29.50;25.25;;;10.60;99.90;;;;;;4938052;28;89806;-33
2022/11/15 07:53:11;;;;;;;31.55;24.60;;;10.60;99.90;;;;;;4938681;28;90454;-31
2022/11/15 07:55:39;;;;;;;27.85;22.10;;;10.70;99.90;;;;;;4937782;28;90311;-31
2022/11/15 07:58:10;;;;;;;34.13;25.67;;;10.70;99.90;;;;;;4937880;28;89291;-32
2022/11/15 08:00:36;;;;;;;28.55;24.65;;;10.70;99.90;;;;;;4937466;28;89575;-32
2022/11/15 08:03:13;;;;;;;32.92;22.65;;;10.70;99.90;;;;;;4938588;28;89184;-34
2022/11/15 08:05:40;;;;;;;28.30;23.33;;;10.70;99.90;;;;;;4938649;28;90261;-34
2022/11/15 08:08:06;;;;;;;32.58;24.90;;;10.80;99.90;;;;;;4937900;28;90648;-33
2022/11/15 08:10:32;;;;;;;27.67;21.92;;;10.80;99.90;;;;;;4937614;28;90231;-33
2022/11/15 08:13:06;;;;;;;29.35;22.55;;;10.90;99.90;;;;;;4938412;28;89252;-33
2022/11/15 08:15:33;;;;;;;30.92;23.60;;;10.90;99.90;;;;;;4937445;28;90104;-32
2022/11/15 08:18:01;;;;;;;30.90;24.17;;;10.90;99.90;;;;;;4937787;28;91324;-32
2022/11/15 08:20:29;;;;;;;39.08;27.30;;;11.00;99.90;;;;;;4937718;28;89293;-32
2022/11/15 08:22:56;;;;;;;34.92;25.70;;;11.10;99.90;;;;;;4938756;28;89387;-32
2022/11/15 08:25:23;;;;;;;28.27;23.25;;;11.10;99.90;;;;;;4937744;28;90417;-32
2022/11/15 08:27:55;;;;;;;30.65;24.42;;;11.20;99.90;;;;;;4937981;28;89929;-33
2022/11/15 08:30:21;;;;;;;31.45;24.73;;;11.10;99.90;;;;;;4937879;28;89446;-33
2022/11/15 08:32:48;;;;;;;28.42;25.42;;;11.20;99.90;;;;;;4938099;28;88620;-32
2022/11/15 08:35:14;;;;;;;27.05;23.75;;;11.20;99.90;;;;;;4938062;28;89670;-34
2022/11/15 08:37:39;;;;;;;31.13;25.38;;;11.20;99.90;;;;;;4899845;28;89577;-31
2022/11/15 08:40:06;;;;;;;27.25;20.52;;;11.20;99.90;;;;;;4938516;28;88914;-32
2022/11/15 08:42:31;;;;;;;28.05;24.88;;;11.30;99.90;;;;;;4937145;28;88784;-33
2022/11/15 08:44:57;;;;;;;32.33;23.92;;;11.30;99.90;;;;;;4929935;28;90012;-32
2022/11/15 08:47:23;;;;;;;29.17;24.92;;;11.30;99.90;;;;;;4937565;28;89931;-32
2022/11/15 08:49:49;;;;;;;29.85;23.60;;;11.40;99.90;;;;;;4936966;28;90788;-32
2022/11/15 08:52:15;;;;;;;31.10;26.27;;;11.40;99.90;;;;;;4938506;28;89959;-33
2022/11/15 08:54:40;;;;;;;28.95;23.90;;;11.40;99.90;;;;;;4937079;28;90258;-31
2022/11/15 08:57:07;;;;;;;34.75;23.08;;;11.40;99.90;;;;;;4937708;28;88892;-33
2022/11/15 08:59:32;;;;;;;30.52;25.00;;;11.30;99.90;;;;;;4938140;28;90770;-31
2022/11/15 09:01:58;;;;;;;27.02;22.95;;;11.40;99.90;;;;;;4936651;28;89510;-32
2022/11/15 09:04:23;;;;;;;28.45;24.85;;;11.40;99.90;;;;;;4937610;28;89304;-34
2022/11/15 09:06:49;;;;;;;33.15;25.75;;;11.40;99.90;;;;;;4936508;28;90997;-35
2022/11/15 09:09:14;;;;;;;27.48;24.17;;;11.40;99.90;;;;;;4935900;28;90451;-31
2022/11/15 09:11:41;;;;;;;28.25;24.60;;;11.40;99.90;;;;;;4967328;23;92088;-32
2022/11/15 09:14:07;;;;;;;27.42;22.02;;;11.40;99.90;;;;;;4937430;28;91074;-32
2022/11/15 09:16:32;;;;;;;29.45;25.30;;;11.40;99.90;;;;;;4937358;28;89486;-33
2022/11/15 09:18:58;;;;;;;30.80;26.65;;;11.40;99.90;;;;;;4936612;28;90170;-33
2022/11/15 09:21:23;;;;;;;31.80;26.10;;;11.40;99.90;;;;;;4938063;28;89720;-34
2022/11/15 09:23:52;;;;;;;31.88;24.55;;;11.40;99.90;;;;;;4936389;28;90317;-33
2022/11/15 09:26:18;;;;;;;37.40;25.98;;;11.40;99.90;;;;;;4923096;28;89903;-32
2022/11/15 09:28:43;;;;;;;26.98;24.10;;;11.60;99.90;;;;;;4936717;28;88632;-33
2022/11/15 09:31:09;;;;;;;30.60;25.75;;;11.60;99.90;;;;;;4936590;28;89030;-32
2022/11/15 09:33:36;;;;;;;34.88;28.30;;;11.60;99.90;;;;;;4937334;28;91059;-34
2022/11/15 09:36:04;;;;;;;29.92;23.65;;;11.50;99.90;;;;;;4936977;28;89454;-31
2022/11/15 09:38:29;;;;;;;28.08;25.08;;;11.60;99.90;;;;;;4936234;28;91382;-33
2022/11/15 09:41:13;;;;;;;31.42;26.58;;;11.60;99.90;;;;;;4936840;28;89273;-33
2022/11/15 09:43:39;;;;;;;32.03;27.27;;;11.60;99.90;;;;;;4937539;28;90344;-31
2022/11/15 09:46:23;;;;;;;35.53;25.70;;;11.60;99.90;;;;;;4936192;28;89135;-31
2022/11/15 09:48:57;;;;;;;31.67;25.95;;;11.70;99.90;;;;;;4937366;28;89736;-33
2022/11/15 09:51:46;;;;;;;28.88;25.48;;;11.70;99.90;;;;;;4936808;28;89589;-31
2022/11/15 09:54:32;;;;;;;30.00;26.02;;;11.70;99.90;;;;;;4937260;28;89903;-32
2022/11/15 09:57:15;;;;;;;26.13;23.33;;;11.70;99.90;;;;;;4935903;28;90492;-33
2022/11/15 10:00:06;;;;;;;25.38;22.73;;;11.70;99.90;;;;;;4936235;28;90783;-33
2022/11/15 10:02:50;;;;;;;23.02;19.52;;;11.70;99.90;;;;;;4937036;28;89771;-31
2022/11/15 10:05:22;;;;;;;25.25;20.80;;;11.70;99.90;;;;;;4936987;28;90659;-33
2022/11/15 10:08:05;;;;;;;24.13;21.35;;;11.70;99.90;;;;;;4937073;28;89354;-32
2022/11/15 10:10:54;;;;;;;24.67;21.95;;;11.70;99.90;;;;;;4935680;28;89729;-32
2022/11/15 10:13:31;;;;;;;28.92;24.67;;;11.80;99.90;;;;;;4936181;28;88410;-31
2022/11/15 10:16:36;;;;;;;24.33;21.25;;;11.80;99.90;;;;;;4937065;28;90413;-33
2022/11/15 10:19:05;;;;;;;28.13;23.73;;;11.80;99.90;;;;;;4936940;28;89674;-33
2022/11/15 10:21:53;;;;;;;23.77;20.98;;;11.80;99.90;;;;;;4936240;28;89435;-32
2022/11/15 10:24:23;;;;;;;26.23;19.88;;;11.80;99.90;;;;;;4936672;28;89740;-32
2022/11/15 10:26:50;;;;;;;20.25;18.23;;;11.80;99.90;;;;;;4936487;28;90797;-31
2022/11/15 10:29:20;;;;;;;19.83;17.75;;;11.80;99.90;;;;;;4936245;28;90083;-32
2022/11/15 10:31:46;;;;;;;25.38;21.30;;;11.70;99.90;;;;;;4939718;28;89801;-33
2022/11/15 10:34:13;;;;;;;19.33;17.20;;;11.70;99.90;;;;;;4940023;28;89694;-31
2022/11/15 10:36:43;;;;;;;20.92;18.65;;;11.70;99.90;;;;;;4939439;28;89108;-31
2022/11/15 10:39:12;;;;;;;20.90;18.67;;;11.80;99.90;;;;;;4939936;28;89656;-34
2022/11/15 10:41:40;;;;;;;20.27;18.10;;;11.80;99.90;;;;;;4940264;28;89517;-34
2022/11/15 10:44:17;;;;;;;20.88;18.58;;;11.80;99.90;;;;;;4939770;28;88607;-31
2022/11/15 10:46:50;;;;;;;21.10;18.67;;;12.00;99.90;;;;;;4939115;28;90001;-33
2022/11/15 10:49:18;;;;;;;22.48;20.08;;;11.90;99.90;;;;;;4939416;28;90396;-33
2022/11/15 10:51:53;;;;;;;21.67;19.55;;;12.00;99.90;;;;;;4939132;28;90157;-32
2022/11/15 10:54:38;;;;;;;18.55;16.70;;;12.00;99.90;;;;;;4940426;28;88799;-32
2022/11/15 10:57:20;;;;;;;20.27;18.27;;;12.00;99.90;;;;;;4939963;28;90430;-32
2022/11/15 10:59:50;;;;;;;19.58;17.42;;;12.10;99.90;;;;;;4939230;28;89922;-32
2022/11/15 11:02:28;;;;;;;18.60;16.63;;;12.10;99.90;;;;;;4938993;28;90149;-34
2022/11/15 11:04:54;;;;;;;20.77;16.65;;;12.20;99.90;;;;;;4936207;28;88905;-33
2022/11/15 11:07:23;;;;;;;20.23;15.98;;;12.20;99.90;;;;;;4921445;28;90129;-32
2022/11/15 11:10:01;;;;;;;18.52;13.93;;;12.20;99.90;;;;;;4923081;28;91787;-30
2022/11/15 11:12:31;;;;;;;16.10;14.52;;;12.20;99.90;;;;;;4927487;28;90555;-33
2022/11/15 11:14:58;;;;;;;17.42;13.35;;;12.30;99.90;;;;;;4938406;28;89332;-33
2022/11/15 11:17:36;;;;;;;15.98;10.50;;;12.30;99.90;;;;;;4937520;28;90328;-35
2022/11/15 11:20:03;;;;;;;18.50;12.07;;;12.40;99.90;;;;;;4938221;28;89780;-34
2022/11/15 11:23:06;;;;;;;17.65;10.48;;;12.50;99.90;;;;;;4938266;28;88913;-33
2022/11/15 11:25:43;;;;;;;16.17;10.35;;;12.60;99.90;;;;;;4938027;28;88766;-33
2022/11/15 11:28:33;;;;;;;11.10;10.00;;;12.80;99.90;;;;;;4938281;28;90544;-34
2022/11/15 11:31:36;;;;;;;11.68;9.52;;;12.90;99.90;;;;;;4938331;28;89842;-32
2022/11/15 11:34:29;;;;;;;13.50;8.40;;;13.10;99.90;;;;;;4939364;28;89556;-33
2022/11/15 11:37:10;;;;;;;8.90;7.75;;;13.10;99.90;;;;;;4939494;28;89863;-33
2022/11/15 11:39:46;;;;;;;13.82;7.65;;;13.00;99.90;;;;;;4939317;28;90578;-31
2022/11/15 11:42:33;;;;;;;8.73;6.70;;;13.00;99.90;;;;;;4937627;28;90702;-32
2022/11/15 11:45:11;;;;;;;6.40;5.80;;;12.90;99.90;;;;;;4939652;28;90357;-32
2022/11/15 11:47:39;;;;;;;;;;;12.80;99.90;;;;;;4937973;28;89785;-34
2022/11/15 11:50:17;;;;;;;9.43;6.75;;;12.80;99.90;;;;;;4940420;28;90320;-32
2022/11/15 11:52:59;;;;;;;9.50;5.85;;;12.70;99.90;;;;;;4938648;28;90594;-30
2022/11/15 11:55:45;;;;;;;8.52;5.95;;;12.70;99.90;;;;;;4939016;28;89449;-34
2022/11/15 11:58:38;;;;;;;6.82;6.15;;;12.70;99.90;;;;;;4939353;28;89530;-32
2022/11/15 12:01:20;;;;;;;6.90;6.20;;;12.70;99.90;;;;;;4938846;28;89930;-33
2022/11/15 12:03:56;;;;;;;8.00;6.43;;;12.80;99.90;;;;;;4937810;28;112055;-31
2022/11/15 12:06:41;;;;;;;8.90;6.55;;;13.00;99.90;;;;;;4938701;28;89655;-34
2022/11/15 12:09:55;;;;;;;14.07;5.78;;;12.90;99.90;;;;;;4937911;28;90135;-34
2022/11/15 12:12:48;;;;;;;8.32;5.80;;;12.90;99.90;;;;;;4921387;28;89998;-31
2022/11/15 12:15:19;;;;;;;6.53;5.93;;;12.70;99.90;;;;;;4938992;28;89977;-33
2022/11/15 12:17:46;;;;;;;8.63;6.38;;;12.70;99.90;;;;;;4932144;28;89509;-34
2022/11/15 12:20:16;;;;;;;9.82;4.50;;;12.60;99.90;;;;;;4931032;28;89106;-32
2022/11/15 12:22:53;;;;;;;8.00;5.88;;;12.60;99.90;;;;;;4937293;28;90517;-33
2022/11/15 12:25:22;;;;;;;5.80;4.90;;;12.60;99.90;;;;;;4932974;28;89346;-32
2022/11/15 12:27:53;;;;;;;6.25;5.07;;;12.60;99.90;;;;;;4931299;28;89643;-32
2022/11/15 12:30:21;;;;;;;4.63;3.92;;;12.60;99.90;;;;;;4937869;28;89547;-33
2022/11/15 12:32:58;;;;;;;16.52;6.32;;;12.60;99.90;;;;;;4938413;28;90972;-32
2022/11/15 12:35:29;;;;;;;10.05;5.00;;;12.60;99.90;;;;;;4924792;28;91659;-33
2022/11/15 12:37:56;;;;;;;6.40;5.10;;;12.70;99.90;;;;;;4938130;28;89525;-34
2022/11/15 12:40:25;;;;;;;7.80;4.10;;;12.80;99.90;;;;;;4938167;28;88991;-31
2022/11/15 12:43:15;;;;;;;3.85;3.50;;;12.90;99.90;;;;;;4937905;28;90220;-33
2022/11/15 12:45:45;;;;;;;6.82;3.67;;;13.00;99.90;;;;;;4938560;28;89914;-32
2022/11/15 12:48:16;;;;;;;8.30;4.60;;;13.00;99.90;;;;;;4938116;28;90423;-32
2022/11/15 12:50:54;;;;;;;5.05;3.50;;;13.10;99.90;;;;;;4938585;28;88284;-33
2022/11/15 12:53:27;;;;;;;4.57;4.17;;;13.20;99.90;;;;;;4937817;28;90365;-30
2022/11/15 12:56:16;;;;;;;5.80;3.90;;;13.20;99.90;;;;;;4938316;28;89360;-34
2022/11/15 12:58:50;;;;;;;6.03;4.18;;;13.30;99.90;;;;;;4937141;28;87695;-33
2022/11/15 13:01:34;;;;;;;3.90;3.13;;;13.30;99.90;;;;;;4937510;28;90684;-32
2022/11/15 13:04:18;;;;;;;4.57;4.18;;;13.20;99.90;;;;;;4937549;28;89634;-31
2022/11/15 13:06:51;;;;;;;6.20;4.00;;;13.10;99.90;;;;;;4937864;28;90466;-33